sensor_id;sensor_type;location;lat;lon;timestamp;pressure;altitude;pressure_sealevel;temperature;humidity
40788;BME280;26497;52.494;7.546;2023-05-02T00:01:55;101147.50;;;15.60;71.13
40788;BME280;26497;52.494;7.546;2023-05-02T00:04:22;101140.22;;;15.73;70.85
40788;BME280;26497;52.494;7.546;2023-05-02T00:06:50;101139.19;;;15.83;70.52
40788;BME280;26497;52.494;7.546;2023-05-02T00:09:18;101138.94;;;16.02;69.98
40788;BME280;26497;52.494;7.546;2023-05-02T00:11:45;101136.13;;;16.10;69.25
40788;BME280;26497;52.494;7.546;2023-05-02T00:14:14;101138.69;;;16.17;68.74
40788;BME280;26497;52.494;7.546;2023-05-02T00:16:41;101136.09;;;16.14;68.87
40788;BME280;26497;52.494;7.546;2023-05-02T00:19:08;101137.72;;;16.23;68.51
40788;BME280;26497;52.494;7.546;2023-05-02T00:21:35;101144.97;;;16.13;68.92
40788;BME280;26497;52.494;7.546;2023-05-02T00:24:02;101137.81;;;16.17;68.89
40788;BME280;26497;52.494;7.546;2023-05-02T00:26:29;101138.84;;;16.08;69.05
40788;BME280;26497;52.494;7.546;2023-05-02T00:28:57;101142.16;;;16.21;68.88
40788;BME280;26497;52.494;7.546;2023-05-02T00:31:25;101139.41;;;16.29;68.66
40788;BME280;26497;52.494;7.546;2023-05-02T00:33:52;101150.09;;;16.26;68.65
40788;BME280;26497;52.494;7.546;2023-05-02T00:36:19;101150.94;;;16.28;68.62
40788;BME280;26497;52.494;7.546;2023-05-02T00:38:46;101148.25;;;16.31;68.69
40788;BME280;26497;52.494;7.546;2023-05-02T00:41:14;101147.28;;;16.35;68.59
40788;BME280;26497;52.494;7.546;2023-05-02T00:43:42;101142.94;;;16.29;68.32
40788;BME280;26497;52.494;7.546;2023-05-02T00:46:09;101152.94;;;16.13;68.64
40788;BME280;26497;52.494;7.546;2023-05-02T00:48:39;101146.59;;;16.22;68.55
40788;BME280;26497;52.494;7.546;2023-05-02T00:51:06;101149.28;;;16.20;68.25
40788;BME280;26497;52.494;7.546;2023-05-02T00:53:37;101153.63;;;16.28;68.22
40788;BME280;26497;52.494;7.546;2023-05-02T00:56:05;101149.38;;;16.14;68.76
40788;BME280;26497;52.494;7.546;2023-05-02T00:58:32;101142.47;;;16.02;68.93
40788;BME280;26497;52.494;7.546;2023-05-02T01:01:10;101141.56;;;16.03;68.72
40788;BME280;26497;52.494;7.546;2023-05-02T01:03:58;101145.13;;;16.04;68.91
40788;BME280;26497;52.494;7.546;2023-05-02T01:06:38;101149.31;;;16.19;68.22
40788;BME280;26497;52.494;7.546;2023-05-02T01:09:23;101144.88;;;16.18;68.32
40788;BME280;26497;52.494;7.546;2023-05-02T01:11:59;101144.22;;;16.03;68.53
40788;BME280;26497;52.494;7.546;2023-05-02T01:14:29;101153.56;;;16.31;67.65
40788;BME280;26497;52.494;7.546;2023-05-02T01:16:58;101151.72;;;16.34;67.58
40788;BME280;26497;52.494;7.546;2023-05-02T01:19:34;101148.44;;;16.18;68.34
40788;BME280;26497;52.494;7.546;2023-05-02T01:22:06;101147.59;;;16.15;68.40
40788;BME280;26497;52.494;7.546;2023-05-02T01:24:40;101149.59;;;16.00;68.79
40788;BME280;26497;52.494;7.546;2023-05-02T01:27:17;101157.66;;;15.96;69.12
40788;BME280;26497;52.494;7.546;2023-05-02T01:29:50;101144.41;;;15.92;69.61
40788;BME280;26497;52.494;7.546;2023-05-02T01:32:20;101159.50;;;15.90;69.87
40788;BME280;26497;52.494;7.546;2023-05-02T01:34:49;101157.56;;;16.00;69.60
40788;BME280;26497;52.494;7.546;2023-05-02T01:37:19;101161.13;;;16.01;69.43
40788;BME280;26497;52.494;7.546;2023-05-02T01:39:46;101165.31;;;16.17;69.12
40788;BME280;26497;52.494;7.546;2023-05-02T01:42:15;101161.84;;;16.11;69.39
40788;BME280;26497;52.494;7.546;2023-05-02T01:44:44;101162.66;;;16.17;69.57
40788;BME280;26497;52.494;7.546;2023-05-02T01:47:14;101163.50;;;16.19;69.72
40788;BME280;26497;52.494;7.546;2023-05-02T01:49:42;101162.66;;;16.16;70.17
40788;BME280;26497;52.494;7.546;2023-05-02T01:52:11;101168.06;;;16.10;70.75
40788;BME280;26497;52.494;7.546;2023-05-02T01:54:40;101170.69;;;16.14;70.84
40788;BME280;26497;52.494;7.546;2023-05-02T01:57:09;101169.81;;;16.11;71.27
40788;BME280;26497;52.494;7.546;2023-05-02T01:59:40;101173.53;;;16.02;72.08
40788;BME280;26497;52.494;7.546;2023-05-02T02:02:09;101173.56;;;15.97;72.78
40788;BME280;26497;52.494;7.546;2023-05-02T02:04:39;101186.19;;;15.83;73.91
40788;BME280;26497;52.494;7.546;2023-05-02T02:07:09;101185.34;;;15.79;74.71
40788;BME280;26497;52.494;7.546;2023-05-02T02:09:37;101195.16;;;15.75;75.19
40788;BME280;26497;52.494;7.546;2023-05-02T02:12:06;101202.13;;;15.83;75.02
40788;BME280;26497;52.494;7.546;2023-05-02T02:14:36;101198.53;;;15.90;74.90
40788;BME280;26497;52.494;7.546;2023-05-02T02:17:11;101212.81;;;15.80;75.77
40788;BME280;26497;52.494;7.546;2023-05-02T02:19:41;101209.25;;;15.79;75.48
40788;BME280;26497;52.494;7.546;2023-05-02T02:25:50;101201.31;;;15.76;74.79
40788;BME280;26497;52.494;7.546;2023-05-02T02:28:18;101195.38;;;15.55;75.44
40788;BME280;26497;52.494;7.546;2023-05-02T02:30:45;101202.59;;;15.45;76.15
40788;BME280;26497;52.494;7.546;2023-05-02T02:33:12;101209.47;;;15.65;75.28
40788;BME280;26497;52.494;7.546;2023-05-02T02:35:49;101203.28;;;15.63;75.56
40788;BME280;26497;52.494;7.546;2023-05-02T02:38:27;101211.94;;;15.79;74.77
40788;BME280;26497;52.494;7.546;2023-05-02T02:41:05;101224.41;;;15.75;74.84
40788;BME280;26497;52.494;7.546;2023-05-02T02:43:45;101230.84;;;15.54;75.39
40788;BME280;26497;52.494;7.546;2023-05-02T02:46:29;101224.59;;;15.58;75.46
40788;BME280;26497;52.494;7.546;2023-05-02T02:49:14;101237.94;;;15.54;75.27
40788;BME280;26497;52.494;7.546;2023-05-02T02:51:56;101243.28;;;15.54;74.85
40788;BME280;26497;52.494;7.546;2023-05-02T02:54:32;101248.75;;;15.37;75.39
40788;BME280;26497;52.494;7.546;2023-05-02T02:57:06;101252.34;;;15.34;75.52
40788;BME280;26497;52.494;7.546;2023-05-02T02:59:43;101251.34;;;15.43;74.87
40788;BME280;26497;52.494;7.546;2023-05-02T03:02:17;101252.19;;;15.48;74.12
40788;BME280;26497;52.494;7.546;2023-05-02T03:04:46;101265.56;;;15.39;74.44
40788;BME280;26497;52.494;7.546;2023-05-02T03:07:18;101263.03;;;15.28;74.79
40788;BME280;26497;52.494;7.546;2023-05-02T03:09:46;101267.56;;;15.21;75.26
40788;BME280;26497;52.494;7.546;2023-05-02T03:12:14;101274.66;;;15.19;75.01
40788;BME280;26497;52.494;7.546;2023-05-02T03:14:41;101279.06;;;15.20;75.08
40788;BME280;26497;52.494;7.546;2023-05-02T03:17:09;101270.22;;;15.19;74.95
40788;BME280;26497;52.494;7.546;2023-05-02T03:19:37;101281.81;;;15.09;75.11
40788;BME280;26497;52.494;7.546;2023-05-02T03:22:04;101280.19;;;14.94;75.43
40788;BME280;26497;52.494;7.546;2023-05-02T03:24:33;101289.91;;;14.95;75.47
40788;BME280;26497;52.494;7.546;2023-05-02T03:27:00;101291.63;;;15.01;75.08
40788;BME280;26497;52.494;7.546;2023-05-02T03:29:27;101294.31;;;14.98;75.08
40788;BME280;26497;52.494;7.546;2023-05-02T03:31:55;101305.91;;;14.87;75.18
40788;BME280;26497;52.494;7.546;2023-05-02T03:35:05;101302.41;;;14.79;75.06
40788;BME280;26497;52.494;7.546;2023-05-02T03:37:36;101309.53;;;14.74;74.74
40788;BME280;26497;52.494;7.546;2023-05-02T03:40:06;101311.34;;;14.64;75.06
40788;BME280;26497;52.494;7.546;2023-05-02T03:42:34;101317.53;;;14.66;74.78
40788;BME280;26497;52.494;7.546;2023-05-02T03:45:06;101315.00;;;14.48;74.94
40788;BME280;26497;52.494;7.546;2023-05-02T03:47:34;101323.81;;;14.54;75.04
40788;BME280;26497;52.494;7.546;2023-05-02T03:50:21;101330.97;;;14.43;75.72
40788;BME280;26497;52.494;7.546;2023-05-02T03:52:48;101329.22;;;14.42;75.87
40788;BME280;26497;52.494;7.546;2023-05-02T03:55:17;101331.81;;;14.47;75.92
40788;BME280;26497;52.494;7.546;2023-05-02T03:57:44;101339.75;;;14.50;75.88
40788;BME280;26497;52.494;7.546;2023-05-02T04:00:12;101339.69;;;14.60;75.63
40788;BME280;26497;52.494;7.546;2023-05-02T04:02:39;101340.53;;;14.67;75.42
40788;BME280;26497;52.494;7.546;2023-05-02T04:05:06;101344.09;;;14.62;75.34
40788;BME280;26497;52.494;7.546;2023-05-02T04:07:34;101340.66;;;14.49;76.06
40788;BME280;26497;52.494;7.546;2023-05-02T04:10:01;101347.69;;;14.56;75.79
40788;BME280;26497;52.494;7.546;2023-05-02T04:12:30;101352.03;;;14.65;75.42
40788;BME280;26497;52.494;7.546;2023-05-02T04:14:57;101364.41;;;14.72;75.00
40788;BME280;26497;52.494;7.546;2023-05-02T04:17:24;101368.81;;;14.76;74.49
40788;BME280;26497;52.494;7.546;2023-05-02T04:19:51;101375.91;;;14.77;73.89
40788;BME280;26497;52.494;7.546;2023-05-02T04:22:19;101375.13;;;14.52;73.57
40788;BME280;26497;52.494;7.546;2023-05-02T04:24:46;101384.94;;;14.34;73.76
40788;BME280;26497;52.494;7.546;2023-05-02T04:27:13;101395.63;;;14.23;73.90
40788;BME280;26497;52.494;7.546;2023-05-02T04:29:41;101393.09;;;13.81;72.16
40788;BME280;26497;52.494;7.546;2023-05-02T04:32:08;101393.09;;;13.27;72.57
40788;BME280;26497;52.494;7.546;2023-05-02T04:34:36;101416.06;;;13.06;73.28
40788;BME280;26497;52.494;7.546;2023-05-02T04:37:03;101430.16;;;12.93;73.47
40788;BME280;26497;52.494;7.546;2023-05-02T04:39:31;101432.72;;;12.54;74.73
40788;BME280;26497;52.494;7.546;2023-05-02T04:41:58;101445.00;;;12.47;75.25
40788;BME280;26497;52.494;7.546;2023-05-02T04:44:25;101447.69;;;12.61;74.98
40788;BME280;26497;52.494;7.546;2023-05-02T04:46:53;101442.50;;;12.86;74.32
40788;BME280;26497;52.494;7.546;2023-05-02T04:49:20;101451.38;;;13.11;73.30
40788;BME280;26497;52.494;7.546;2023-05-02T04:51:47;101468.13;;;13.00;73.24
40788;BME280;26497;52.494;7.546;2023-05-02T04:54:14;101470.75;;;12.89;73.46
40788;BME280;26497;52.494;7.546;2023-05-02T04:56:41;101475.16;;;12.88;73.26
40788;BME280;26497;52.494;7.546;2023-05-02T04:59:08;101484.78;;;12.74;73.25
40788;BME280;26497;52.494;7.546;2023-05-02T05:01:35;101492.75;;;12.72;73.09
40788;BME280;26497;52.494;7.546;2023-05-02T05:04:04;101498.06;;;12.81;72.56
40788;BME280;26497;52.494;7.546;2023-05-02T05:06:31;101496.28;;;12.79;72.31
40788;BME280;26497;52.494;7.546;2023-05-02T05:08:58;101500.72;;;12.86;72.46
40788;BME280;26497;52.494;7.546;2023-05-02T05:11:53;101511.31;;;12.86;71.85
40788;BME280;26497;52.494;7.546;2023-05-02T05:14:20;101518.41;;;12.93;71.91
40788;BME280;26497;52.494;7.546;2023-05-02T05:16:47;101521.03;;;12.86;72.61
40788;BME280;26497;52.494;7.546;2023-05-02T05:19:15;101519.31;;;13.05;71.03
40788;BME280;26497;52.494;7.546;2023-05-02T05:21:42;101521.06;;;13.00;71.47
40788;BME280;26497;52.494;7.546;2023-05-02T05:24:10;101526.41;;;13.04;71.74
40788;BME280;26497;52.494;7.546;2023-05-02T05:26:37;101519.34;;;13.06;71.70
40788;BME280;26497;52.494;7.546;2023-05-02T05:29:04;101528.06;;;12.85;68.94
40788;BME280;26497;52.494;7.546;2023-05-02T05:31:32;101530.75;;;12.90;70.16
40788;BME280;26497;52.494;7.546;2023-05-02T05:33:59;101531.66;;;12.96;70.44
40788;BME280;26497;52.494;7.546;2023-05-02T05:36:28;101541.41;;;13.07;71.01
40788;BME280;26497;52.494;7.546;2023-05-02T05:38:56;101539.69;;;13.20;70.76
40788;BME280;26497;52.494;7.546;2023-05-02T05:41:23;101533.53;;;13.41;69.59
40788;BME280;26497;52.494;7.546;2023-05-02T05:43:50;101550.34;;;13.43;69.70
40788;BME280;26497;52.494;7.546;2023-05-02T05:46:17;101545.06;;;13.49;69.43
40788;BME280;26497;52.494;7.546;2023-05-02T05:48:44;101562.72;;;13.49;67.60
40788;BME280;26497;52.494;7.546;2023-05-02T05:51:11;101568.91;;;13.43;66.70
40788;BME280;26497;52.494;7.546;2023-05-02T05:53:39;101581.16;;;13.19;67.06
40788;BME280;26497;52.494;7.546;2023-05-02T05:56:11;101580.31;;;13.22;67.96
40788;BME280;26497;52.494;7.546;2023-05-02T05:58:38;101579.41;;;13.18;68.68
40788;BME280;26497;52.494;7.546;2023-05-02T06:01:07;101582.91;;;13.17;68.33
40788;BME280;26497;52.494;7.546;2023-05-02T06:03:34;101598.81;;;13.17;68.92
40788;BME280;26497;52.494;7.546;2023-05-02T06:06:01;101585.56;;;13.17;68.66
40788;BME280;26497;52.494;7.546;2023-05-02T06:08:29;101597.91;;;13.12;68.40
40788;BME280;26497;52.494;7.546;2023-05-02T06:10:57;101604.97;;;13.10;67.11
40788;BME280;26497;52.494;7.546;2023-05-02T06:13:25;101600.56;;;13.07;67.86
40788;BME280;26497;52.494;7.546;2023-05-02T06:15:52;101603.25;;;13.29;68.42
40788;BME280;26497;52.494;7.546;2023-05-02T06:18:19;101601.59;;;13.50;67.15
40788;BME280;26497;52.494;7.546;2023-05-02T06:20:46;101600.78;;;13.83;67.22
40788;BME280;26497;52.494;7.546;2023-05-02T06:23:13;101610.50;;;14.11;66.08
40788;BME280;26497;52.494;7.546;2023-05-02T06:25:40;101624.63;;;14.45;64.78
40788;BME280;26497;52.494;7.546;2023-05-02T06:28:08;101627.28;;;14.73;62.94
40788;BME280;26497;52.494;7.546;2023-05-02T06:30:35;101633.31;;;15.22;62.09
40788;BME280;26497;52.494;7.546;2023-05-02T06:33:03;101634.19;;;15.19;56.98
40788;BME280;26497;52.494;7.546;2023-05-02T06:35:30;101637.75;;;15.23;57.17
40788;BME280;26497;52.494;7.546;2023-05-02T06:37:58;101634.06;;;15.46;57.67
40788;BME280;26497;52.494;7.546;2023-05-02T06:40:25;101644.75;;;15.38;54.51
40788;BME280;26497;52.494;7.546;2023-05-02T06:42:52;101644.84;;;15.21;52.47
40788;BME280;26497;52.494;7.546;2023-05-02T06:45:20;101649.19;;;15.34;53.27
40788;BME280;26497;52.494;7.546;2023-05-02T06:47:47;101646.41;;;15.59;53.99
40788;BME280;26497;52.494;7.546;2023-05-02T06:50:15;101660.47;;;15.77;52.64
40788;BME280;26497;52.494;7.546;2023-05-02T06:52:42;101662.22;;;15.84;52.84
40788;BME280;26497;52.494;7.546;2023-05-02T06:55:09;101682.63;;;15.84;52.74
40788;BME280;26497;52.494;7.546;2023-05-02T06:57:36;101681.69;;;15.94;50.03
40788;BME280;26497;52.494;7.546;2023-05-02T07:00:04;101692.19;;;16.17;51.02
40788;BME280;26497;52.494;7.546;2023-05-02T07:02:33;101690.25;;;16.38;51.17
40788;BME280;26497;52.494;7.546;2023-05-02T07:05:00;101684.78;;;16.52;50.30
40788;BME280;26497;52.494;7.546;2023-05-02T07:07:27;101691.16;;;16.37;48.88
40788;BME280;26497;52.494;7.546;2023-05-02T07:09:54;101692.94;;;16.35;50.24
40788;BME280;26497;52.494;7.546;2023-05-02T07:12:21;101692.94;;;16.35;50.44
40788;BME280;26497;52.494;7.546;2023-05-02T07:14:48;101700.59;;;16.69;50.25
40788;BME280;26497;52.494;7.546;2023-05-02T07:17:15;101698.00;;;16.63;49.58
40788;BME280;26497;52.494;7.546;2023-05-02T07:19:44;101698.78;;;16.74;48.56
40788;BME280;26497;52.494;7.546;2023-05-02T07:22:11;101707.59;;;16.79;47.78
40788;BME280;26497;52.494;7.546;2023-05-02T07:24:40;101693.50;;;16.68;46.21
40788;BME280;26497;52.494;7.546;2023-05-02T07:27:08;101699.13;;;16.37;46.20
40788;BME280;26497;52.494;7.546;2023-05-02T07:29:35;101711.72;;;16.13;45.26
40788;BME280;26497;52.494;7.546;2023-05-02T07:32:03;101726.66;;;16.31;47.32
40788;BME280;26497;52.494;7.546;2023-05-02T07:34:30;101724.75;;;16.49;46.69
40788;BME280;26497;52.494;7.546;2023-05-02T07:36:59;101735.19;;;16.74;46.09
40788;BME280;26497;52.494;7.546;2023-05-02T07:39:26;101733.25;;;16.94;44.57
40788;BME280;26497;52.494;7.546;2023-05-02T07:41:53;101731.94;;;17.34;46.34
40788;BME280;26497;52.494;7.546;2023-05-02T07:44:21;101738.91;;;17.46;44.83
40788;BME280;26497;52.494;7.546;2023-05-02T07:46:48;101742.81;;;17.17;42.27
40788;BME280;26497;52.494;7.546;2023-05-02T07:49:31;101743.00;;;16.94;44.00
40788;BME280;26497;52.494;7.546;2023-05-02T07:52:03;101749.41;;;16.71;45.11
40788;BME280;26497;52.494;7.546;2023-05-02T07:54:30;101754.84;;;16.60;43.88
40788;BME280;26497;52.494;7.546;2023-05-02T07:56:58;101753.22;;;16.41;45.14
40788;BME280;26497;52.494;7.546;2023-05-02T07:59:29;101753.03;;;16.65;45.17
40788;BME280;26497;52.494;7.546;2023-05-02T08:01:56;101758.13;;;16.93;44.28
40788;BME280;26497;52.494;7.546;2023-05-02T08:04:24;101759.88;;;16.98;44.54
40788;BME280;26497;52.494;7.546;2023-05-02T08:06:51;101769.19;;;17.39;44.57
40788;BME280;26497;52.494;7.546;2023-05-02T08:09:20;101767.28;;;17.52;43.16
40788;BME280;26497;52.494;7.546;2023-05-02T08:11:47;101773.25;;;17.76;39.95
40788;BME280;26497;52.494;7.546;2023-05-02T08:14:14;101775.59;;;18.01;40.71
40788;BME280;26497;52.494;7.546;2023-05-02T08:16:42;101781.25;;;18.41;40.77
40788;BME280;26497;52.494;7.546;2023-05-02T08:19:09;101781.00;;;18.55;38.99
40788;BME280;26497;52.494;7.546;2023-05-02T08:21:36;101789.84;;;18.61;37.35
40788;BME280;26497;52.494;7.546;2023-05-02T08:24:03;101781.78;;;18.62;39.09
40788;BME280;26497;52.494;7.546;2023-05-02T08:26:32;101795.31;;;19.08;39.00
40788;BME280;26497;52.494;7.546;2023-05-02T08:28:59;101795.13;;;19.19;36.29
40788;BME280;26497;52.494;7.546;2023-05-02T08:31:26;101796.84;;;18.68;36.83
40788;BME280;26497;52.494;7.546;2023-05-02T08:33:53;101800.72;;;18.50;38.97
40788;BME280;26497;52.494;7.546;2023-05-02T08:36:20;101800.34;;;18.71;36.99
40788;BME280;26497;52.494;7.546;2023-05-02T08:38:47;101801.78;;;18.93;36.32
40788;BME280;26497;52.494;7.546;2023-05-02T08:41:15;101796.22;;;19.54;37.01
40788;BME280;26497;52.494;7.546;2023-05-02T08:43:45;101799.63;;;19.62;34.45
40788;BME280;26497;52.494;7.546;2023-05-02T08:46:14;101805.38;;;19.40;34.35
40788;BME280;26497;52.494;7.546;2023-05-02T08:48:44;101797.78;;;19.66;34.35
40788;BME280;26497;52.494;7.546;2023-05-02T08:51:14;101808.63;;;19.58;35.29
40788;BME280;26497;52.494;7.546;2023-05-02T08:53:41;101816.56;;;19.15;34.31
40788;BME280;26497;52.494;7.546;2023-05-02T08:56:11;101822.28;;;19.44;34.55
40788;BME280;26497;52.494;7.546;2023-05-02T08:58:39;101817.91;;;19.84;31.47
40788;BME280;26497;52.494;7.546;2023-05-02T09:01:14;101813.38;;;19.89;33.91
40788;BME280;26497;52.494;7.546;2023-05-02T09:03:43;101815.09;;;19.92;31.83
40788;BME280;26497;52.494;7.546;2023-05-02T09:06:12;101827.28;;;20.07;32.15
40788;BME280;26497;52.494;7.546;2023-05-02T09:08:41;101824.00;;;20.33;32.20
40788;BME280;26497;52.494;7.546;2023-05-02T09:11:10;101840.19;;;19.86;32.44
40788;BME280;26497;52.494;7.546;2023-05-02T09:13:39;101846.09;;;20.02;30.69
40788;BME280;26497;52.494;7.546;2023-05-02T09:16:09;101852.31;;;20.06;29.09
40788;BME280;26497;52.494;7.546;2023-05-02T09:18:39;101850.22;;;20.20;28.01
40788;BME280;26497;52.494;7.546;2023-05-02T09:21:08;101857.38;;;20.18;29.30
40788;BME280;26497;52.494;7.546;2023-05-02T09:23:41;101859.22;;;20.16;27.47
40788;BME280;26497;52.494;7.546;2023-05-02T09:26:14;101859.41;;;20.07;29.19
40788;BME280;26497;52.494;7.546;2023-05-02T09:28:43;101859.44;;;20.05;30.40
40788;BME280;26497;52.494;7.546;2023-05-02T09:31:14;101863.19;;;19.96;29.30
40788;BME280;26497;52.494;7.546;2023-05-02T09:33:42;101866.13;;;20.26;30.28
40788;BME280;26497;52.494;7.546;2023-05-02T09:36:11;101856.22;;;20.30;30.12
40788;BME280;26497;52.494;7.546;2023-05-02T09:38:40;101862.97;;;20.87;30.44
40788;BME280;26497;52.494;7.546;2023-05-02T09:41:07;101861.22;;;21.56;29.09
40788;BME280;26497;52.494;7.546;2023-05-02T09:43:35;101866.91;;;21.43;27.86
40788;BME280;26497;52.494;7.546;2023-05-02T09:46:04;101867.66;;;21.48;28.56
40788;BME280;26497;52.494;7.546;2023-05-02T09:48:51;101859.22;;;21.29;30.27
40788;BME280;26497;52.494;7.546;2023-05-02T09:51:20;101852.88;;;21.67;27.33
40788;BME280;26497;52.494;7.546;2023-05-02T09:53:48;101860.25;;;21.90;28.24
40788;BME280;26497;52.494;7.546;2023-05-02T09:56:16;101864.84;;;22.48;26.93
40788;BME280;26497;52.494;7.546;2023-05-02T09:58:44;101867.03;;;22.03;26.94
40788;BME280;26497;52.494;7.546;2023-05-02T10:01:14;101864.34;;;22.03;26.16
40788;BME280;26497;52.494;7.546;2023-05-02T10:03:46;101881.47;;;21.99;25.54
40788;BME280;26497;52.494;7.546;2023-05-02T10:06:14;101880.78;;;22.54;26.11
40788;BME280;26497;52.494;7.546;2023-05-02T10:08:42;101882.25;;;22.64;26.29
40788;BME280;26497;52.494;7.546;2023-05-02T10:11:12;101886.44;;;22.73;26.50
40788;BME280;26497;52.494;7.546;2023-05-02T10:13:40;101898.00;;;22.47;26.78
40788;BME280;26497;52.494;7.546;2023-05-02T10:16:11;101888.16;;;22.47;25.90
40788;BME280;26497;52.494;7.546;2023-05-02T10:18:47;101888.97;;;21.88;26.86
40788;BME280;26497;52.494;7.546;2023-05-02T10:21:24;101892.75;;;21.47;29.25
40788;BME280;26497;52.494;7.546;2023-05-02T10:23:53;101901.19;;;21.32;29.73
40788;BME280;26497;52.494;7.546;2023-05-02T10:26:21;101893.34;;;21.57;27.98
40788;BME280;26497;52.494;7.546;2023-05-02T10:28:49;101905.72;;;21.96;25.47
40788;BME280;26497;52.494;7.546;2023-05-02T10:31:18;101897.19;;;22.73;25.71
40788;BME280;26497;52.494;7.546;2023-05-02T10:33:50;101904.31;;;23.30;24.74
40788;BME280;26497;52.494;7.546;2023-05-02T10:36:20;101897.69;;;23.91;24.04
40788;BME280;26497;52.494;7.546;2023-05-02T10:38:48;101904.53;;;23.76;24.57
40788;BME280;26497;52.494;7.546;2023-05-02T10:41:19;101907.44;;;23.93;24.07
40788;BME280;26497;52.494;7.546;2023-05-02T10:43:48;101913.69;;;23.45;24.80
40788;BME280;26497;52.494;7.546;2023-05-02T10:46:32;101905.31;;;23.27;25.41
40788;BME280;26497;52.494;7.546;2023-05-02T10:49:03;101914.44;;;23.23;23.75
40788;BME280;26497;52.494;7.546;2023-05-02T10:51:32;101914.16;;;22.75;24.60
40788;BME280;26497;52.494;7.546;2023-05-02T10:54:19;101910.44;;;21.88;25.26
40788;BME280;26497;52.494;7.546;2023-05-02T10:57:04;101918.69;;;21.47;26.79
40788;BME280;26497;52.494;7.546;2023-05-02T10:59:35;101919.28;;;21.24;26.37
40788;BME280;26497;52.494;7.546;2023-05-02T11:02:03;101912.75;;;20.98;27.32
40788;BME280;26497;52.494;7.546;2023-05-02T11:05:00;101918.66;;;21.12;28.62
40788;BME280;26497;52.494;7.546;2023-05-02T11:07:29;101916.13;;;21.42;26.23
40788;BME280;26497;52.494;7.546;2023-05-02T11:10:25;101912.31;;;21.86;26.32
40788;BME280;26497;52.494;7.546;2023-05-02T11:12:55;101913.31;;;22.45;25.31
40788;BME280;26497;52.494;7.546;2023-05-02T11:15:55;101922.16;;;22.48;25.85
40788;BME280;26497;52.494;7.546;2023-05-02T11:18:25;101912.34;;;22.76;24.31
40788;BME280;26497;52.494;7.546;2023-05-02T11:21:26;101919.00;;;22.02;26.26
40788;BME280;26497;52.494;7.546;2023-05-02T11:24:37;101915.59;;;22.27;24.82
40788;BME280;26497;52.494;7.546;2023-05-02T11:27:37;101914.22;;;22.74;26.45
40788;BME280;26497;52.494;7.546;2023-05-02T11:30:06;101920.56;;;23.26;26.19
40788;BME280;26497;52.494;7.546;2023-05-02T11:33:10;101923.38;;;22.95;25.82
40788;BME280;26497;52.494;7.546;2023-05-02T11:35:42;101917.56;;;22.52;26.11
40788;BME280;26497;52.494;7.546;2023-05-02T11:38:17;101930.09;;;23.10;26.63
40788;BME280;26497;52.494;7.546;2023-05-02T11:40:56;101927.94;;;22.93;25.10
40788;BME280;26497;52.494;7.546;2023-05-02T11:43:26;101931.66;;;22.89;24.44
40788;BME280;26497;52.494;7.546;2023-05-02T11:45:54;101929.50;;;22.42;24.78
40788;BME280;26497;52.494;7.546;2023-05-02T11:48:23;101933.66;;;22.22;25.75
40788;BME280;26497;52.494;7.546;2023-05-02T11:50:56;101931.28;;;22.11;25.77
40788;BME280;26497;52.494;7.546;2023-05-02T11:53:28;101924.25;;;21.75;25.07
40788;BME280;26497;52.494;7.546;2023-05-02T11:55:57;101934.22;;;21.34;25.44
40788;BME280;26497;52.494;7.546;2023-05-02T11:58:27;101943.97;;;21.38;25.86
40788;BME280;26497;52.494;7.546;2023-05-02T12:00:55;101948.56;;;21.33;27.42
40788;BME280;26497;52.494;7.546;2023-05-02T12:03:26;101968.19;;;21.33;26.53
40788;BME280;26497;52.494;7.546;2023-05-02T12:05:54;101967.97;;;21.43;28.18
40788;BME280;26497;52.494;7.546;2023-05-02T12:08:24;101968.72;;;21.86;25.32
40788;BME280;26497;52.494;7.546;2023-05-02T12:10:55;101963.13;;;21.93;24.64
40788;BME280;26497;52.494;7.546;2023-05-02T12:13:24;101969.91;;;22.38;24.21
40788;BME280;26497;52.494;7.546;2023-05-02T12:15:53;101970.66;;;23.02;23.51
40788;BME280;26497;52.494;7.546;2023-05-02T12:18:22;101971.78;;;23.25;24.51
40788;BME280;26497;52.494;7.546;2023-05-02T12:20:51;101970.22;;;23.45;23.59
40788;BME280;26497;52.494;7.546;2023-05-02T12:23:20;101970.28;;;22.86;24.26
40788;BME280;26497;52.494;7.546;2023-05-02T12:25:47;101957.22;;;23.02;24.28
40788;BME280;26497;52.494;7.546;2023-05-02T12:28:17;101962.25;;;23.41;24.15
40788;BME280;26497;52.494;7.546;2023-05-02T12:30:47;101970.06;;;23.49;23.13
40788;BME280;26497;52.494;7.546;2023-05-02T12:33:15;101971.81;;;23.23;24.88
40788;BME280;26497;52.494;7.546;2023-05-02T12:35:43;101977.03;;;23.00;25.11
40788;BME280;26497;52.494;7.546;2023-05-02T12:38:14;101982.31;;;22.44;26.33
40788;BME280;26497;52.494;7.546;2023-05-02T12:40:49;101979.97;;;22.62;26.48
40788;BME280;26497;52.494;7.546;2023-05-02T12:43:18;101982.56;;;23.23;25.30
40788;BME280;26497;52.494;7.546;2023-05-02T12:45:46;101977.72;;;22.78;25.61
40788;BME280;26497;52.494;7.546;2023-05-02T12:48:20;101987.47;;;22.19;25.42
40788;BME280;26497;52.494;7.546;2023-05-02T12:50:47;101984.69;;;22.53;24.59
40788;BME280;26497;52.494;7.546;2023-05-02T12:53:15;101985.22;;;22.66;25.57
40788;BME280;26497;52.494;7.546;2023-05-02T12:55:42;101990.97;;;22.84;25.45
40788;BME280;26497;52.494;7.546;2023-05-02T12:58:10;101992.00;;;22.80;25.32
40788;BME280;26497;52.494;7.546;2023-05-02T13:00:41;101989.75;;;22.94;25.16
40788;BME280;26497;52.494;7.546;2023-05-02T13:03:09;101992.19;;;23.31;24.76
40788;BME280;26497;52.494;7.546;2023-05-02T13:05:36;101996.13;;;23.74;24.98
40788;BME280;26497;52.494;7.546;2023-05-02T13:08:04;101988.91;;;24.02;23.37
40788;BME280;26497;52.494;7.546;2023-05-02T13:10:31;101992.59;;;23.18;25.34